Coronel FAP Carlos Ciriani Santa Rosa International Airport


Codes: SPTN/TCQ
Name: Coronel FAP Carlos Ciriani Santa Rosa International Airport
City: Tacna
Country: Peru
Elevation: 1538 ft.
Wikipedia:

Photos at Coronel FAP Carlos Ciriani Santa Rosa International Airport


   Photos courtesy of SpottingLog. You can add your own sightings and photos by signing up for a free trial today.



No photos found.

Weather at Coronel FAP Carlos Ciriani Santa Rosa International Airport


Time (UTC)DescriptionTempratureWindCloud coverageVisibilityPressureHumidity
21-Jun-2024 12:00Broken Clouds13°C4 mph, SW83%2150m1015hPa89%
21-Jun-2024 15:00Overcast Clouds17°C4 mph, SW90%10000m1015hPa70%
21-Jun-2024 18:00Overcast Clouds20°C9 mph, SW90%10000m1015hPa62%
21-Jun-2024 21:00Overcast Clouds16°C11 mph, SW99%10000m1015hPa79%
22-Jun-2024 00:00Overcast Clouds15°C4 mph, SW100%9976m1016hPa85%
22-Jun-2024 03:00Overcast Clouds14°C2 mph, NE94%10000m1017hPa91%
22-Jun-2024 06:00Broken Clouds14°C2 mph, SW76%10000m1016hPa92%
22-Jun-2024 09:00Scattered Clouds12°C2 mph, SW44%115m1015hPa98%
22-Jun-2024 12:00Broken Clouds13°C0 mph, SE57%10000m1017hPa93%
22-Jun-2024 15:00Scattered Clouds18°C4 mph, SW43%10000m1016hPa66%
22-Jun-2024 18:00Few Clouds21°C9 mph, SW22%10000m1013hPa55%
22-Jun-2024 21:00Clear Sky18°C7 mph, SW8%10000m1012hPa72%
23-Jun-2024 00:00Scattered Clouds14°C4 mph, SW25%10000m1014hPa91%
23-Jun-2024 03:00Broken Clouds14°C2 mph, W72%10000m1016hPa94%
23-Jun-2024 06:00Scattered Clouds13°C2 mph, W44%10000m1015hPa95%
23-Jun-2024 09:00Scattered Clouds13°C2 mph, SW43%2553m1015hPa96%
23-Jun-2024 12:00Scattered Clouds14°C2 mph, N43%10000m1015hPa89%
23-Jun-2024 15:00Clear Sky18°C7 mph, SW6%10000m1016hPa71%
23-Jun-2024 18:00Clear Sky21°C7 mph, SW7%10000m1013hPa58%
23-Jun-2024 21:00Broken Clouds17°C7 mph, SW60%10000m1014hPa77%
24-Jun-2024 00:00Broken Clouds14°C2 mph, SW61%10000m1016hPa91%
24-Jun-2024 03:00Scattered Clouds13°C4 mph, SW43%2992m1017hPa95%
24-Jun-2024 06:00Scattered Clouds13°C2 mph, SW50%7360m1016hPa97%
24-Jun-2024 09:00Broken Clouds13°C0 mph, E62%10000m1015hPa94%
24-Jun-2024 12:00Broken Clouds13°C0 mph, SW52%10000m1016hPa94%
24-Jun-2024 15:00Broken Clouds17°C4 mph, SW60%10000m1016hPa75%
24-Jun-2024 18:00Scattered Clouds21°C9 mph, SW40%10000m1013hPa57%
24-Jun-2024 21:00Few Clouds17°C9 mph, SW11%10000m1014hPa74%
25-Jun-2024 00:00Few Clouds14°C4 mph, SW17%10000m1016hPa93%
25-Jun-2024 03:00Broken Clouds13°C2 mph, SW64%10000m1017hPa92%
25-Jun-2024 06:00Broken Clouds13°C2 mph, SW70%10000m1017hPa91%
25-Jun-2024 09:00Broken Clouds13°C2 mph, SW84%10000m1016hPa94%
25-Jun-2024 12:00Broken Clouds13°C0 mph, SW74%10000m1017hPa94%
25-Jun-2024 15:00Broken Clouds17°C4 mph, SW56%10000m1017hPa72%
25-Jun-2024 18:00Scattered Clouds19°C9 mph, SW38%10000m1016hPa61%
25-Jun-2024 21:00Few Clouds16°C9 mph, SW11%10000m1016hPa74%
26-Jun-2024 00:00Scattered Clouds14°C2 mph, SW27%10000m1019hPa89%
26-Jun-2024 03:00Broken Clouds13°C2 mph, SW70%10000m1020hPa91%
26-Jun-2024 06:00Overcast Clouds13°C2 mph, SW87%10000m1019hPa89%
26-Jun-2024 09:00Overcast Clouds14°C2 mph, SW100%10000m1019hPa90%